Aérodrome :
LOGIN :

S'inscrire | Disclaimer

   EN    FR    IT 

 










Légende :    VFR   VFR Marginal   IFR   IFR Intensif   IFR Très Intensif
Visi : 
Plafond : 
>= 8 km
>= 3000ft
5 à 8 km
1000 à 3000 ft
1500m à 5 km
500 à 1000 ft
800 à 1500m
200 à 500 ft
< 800m
< 200 ft
Symboles :   Orages  Brouillard  Fortes neiges  Fortes précipitations  Vent > 20 kt
SIGMETs :   Divers  Orages  Givrage  Turbulence  Onde Orograph.  Cendres Volcan.







- Altitude de l'aérodrome : 1363 ft


ETIC - Grafenwohr Army Air Field

DERNIER METAR :
  • 231158Z AUTO 00000KT 9999 OVC013 09/05 A3000 RMK AO2 SLP170 70003 50006

METARs EXPIRÉS :
  • 231058Z AUTO 00000KT 9999 OVC012 08/05 A3000 RMK AO2 OVC V BKN SLP170
  • 230958Z COR 00000KT 9999 OVC011 07/04 A3000 RMK AO2A CIG010V014 SLP173 T00670044 $

TAF AMD TAF ETIC
Valide du 23 à 11h jusqu'au 24 à 12h UTC


231132Z 2311/2412 10006KT 9999 BKN012 QNH2995INS
BECMG 2323/2324 VRB06KT 9999 BKN010 QNH3012INS
BECMG 2407/2408 VRB06KT 9999 SCT015 QNH3013INS TX11/2315Z TN03/2405Z
Pas de NOTAMs connus pour ce terrain.



MET'MAP, la Météo Aéronautique d'un coup d'oeil ! - Copyright ORBIFLY Décembre 2007 - Disclaimer

ORBIFLY MET'MAP TEAM :

Programmation & Développement : Alexandra Zaïnal
Conception & Développement : Baudouin d'Aumeries
Co-Programmation & Développement : Marc-Olivier Méhu
Soutien technique & logistique : Manuel Goepfert

Contact : metmap@orbifly.com




SOURCES & CREDITS :

   NOAA